sensor_id;sensor_type;location;lat;lon;timestamp;pressure;altitude;pressure_sealevel;temperature;humidity
35918;BME280;22011;59.912;30.300;2023-02-02T00:01:19;99809.13;;;2.12;70.65
35918;BME280;22011;59.912;30.300;2023-02-02T00:03:47;99811.78;;;2.12;70.73
35918;BME280;22011;59.912;30.300;2023-02-02T00:06:17;99815.50;;;2.09;70.51
35918;BME280;22011;59.912;30.300;2023-02-02T00:08:46;99814.25;;;2.04;70.63
35918;BME280;22011;59.912;30.300;2023-02-02T00:11:14;99814.41;;;2.02;70.88
35918;BME280;22011;59.912;30.300;2023-02-02T00:13:41;99807.47;;;2.01;70.50
35918;BME280;22011;59.912;30.300;2023-02-02T00:16:39;99812.75;;;2.20;71.42
35918;BME280;22011;59.912;30.300;2023-02-02T00:19:10;99814.00;;;2.07;71.00
35918;BME280;22011;59.912;30.300;2023-02-02T00:21:39;99810.53;;;2.06;71.24
35918;BME280;22011;59.912;30.300;2023-02-02T00:24:09;99810.53;;;2.06;70.94
35918;BME280;22011;59.912;30.300;2023-02-02T00:26:37;99809.72;;;2.06;70.84
35918;BME280;22011;59.912;30.300;2023-02-02T00:29:06;99817.59;;;2.06;71.35
35918;BME280;22011;59.912;30.300;2023-02-02T00:31:34;99809.41;;;1.99;71.16
35918;BME280;22011;59.912;30.300;2023-02-02T00:34:01;99808.72;;;1.97;71.30
35918;BME280;22011;59.912;30.300;2023-02-02T00:36:29;99805.00;;;2.00;71.70
35918;BME280;22011;59.912;30.300;2023-02-02T00:38:58;99814.25;;;2.04;71.56
35918;BME280;22011;59.912;30.300;2023-02-02T00:41:25;99813.31;;;2.05;71.41
35918;BME280;22011;59.912;30.300;2023-02-02T00:43:53;99813.44;;;2.03;71.34
35918;BME280;22011;59.912;30.300;2023-02-02T00:46:38;99806.50;;;2.12;72.07
35918;BME280;22011;59.912;30.300;2023-02-02T00:49:06;99805.94;;;2.08;72.08
35918;BME280;22011;59.912;30.300;2023-02-02T00:51:33;99806.13;;;2.07;72.60
35918;BME280;22011;59.912;30.300;2023-02-02T00:54:03;99812.59;;;2.03;73.25
35918;BME280;22011;59.912;30.300;2023-02-02T00:56:31;99809.69;;;1.96;73.28
35918;BME280;22011;59.912;30.300;2023-02-02T00:58:58;99802.75;;;1.95;73.29
35918;BME280;22011;59.912;30.300;2023-02-02T01:01:26;99811.34;;;1.97;72.73
35918;BME280;22011;59.912;30.300;2023-02-02T01:03:54;99810.38;;;1.98;72.24
35918;BME280;22011;59.912;30.300;2023-02-02T01:06:22;99811.06;;;2.00;72.91
35918;BME280;22011;59.912;30.300;2023-02-02T01:08:50;99806.91;;;1.98;72.22
35918;BME280;22011;59.912;30.300;2023-02-02T01:11:19;99811.06;;;2.00;71.91
35918;BME280;22011;59.912;30.300;2023-02-02T01:13:46;99807.06;;;1.96;72.03
35918;BME280;22011;59.912;30.300;2023-02-02T01:16:14;99804.16;;;1.99;72.86
35918;BME280;22011;59.912;30.300;2023-02-02T01:18:42;99804.44;;;1.96;73.24
35918;BME280;22011;59.912;30.300;2023-02-02T01:21:11;99807.63;;;2.00;73.28
35918;BME280;22011;59.912;30.300;2023-02-02T01:23:39;99813.00;;;1.98;72.52
35918;BME280;22011;59.912;30.300;2023-02-02T01:26:07;99816.47;;;1.99;72.56
35918;BME280;22011;59.912;30.300;2023-02-02T01:28:37;99811.06;;;2.00;71.93
35918;BME280;22011;59.912;30.300;2023-02-02T01:31:07;99807.75;;;1.98;72.42
35918;BME280;22011;59.912;30.300;2023-02-02T01:33:35;99802.63;;;1.96;72.27
35918;BME280;22011;59.912;30.300;2023-02-02T01:36:05;99803.47;;;1.97;72.34
35918;BME280;22011;59.912;30.300;2023-02-02T01:38:33;99808.28;;;1.92;72.31
35918;BME280;22011;59.912;30.300;2023-02-02T01:41:01;99806.88;;;1.88;72.47
35918;BME280;22011;59.912;30.300;2023-02-02T01:43:48;99819.06;;;1.89;72.76
35918;BME280;22011;59.912;30.300;2023-02-02T01:46:20;99811.31;;;1.87;73.03
35918;BME280;22011;59.912;30.300;2023-02-02T01:48:53;99816.69;;;1.86;73.27
35918;BME280;22011;59.912;30.300;2023-02-02T01:51:26;99827.59;;;1.81;73.46
35918;BME280;22011;59.912;30.300;2023-02-02T01:53:57;99826.75;;;1.81;73.57
35918;BME280;22011;59.912;30.300;2023-02-02T01:56:27;99816.13;;;1.82;73.90
35918;BME280;22011;59.912;30.300;2023-02-02T01:58:57;99824.84;;;1.83;73.80
35918;BME280;22011;59.912;30.300;2023-02-02T02:01:26;99824.28;;;1.79;73.99
35918;BME280;22011;59.912;30.300;2023-02-02T02:03:54;99823.44;;;1.79;74.40
35918;BME280;22011;59.912;30.300;2023-02-02T02:06:22;99828.69;;;1.79;74.78
35918;BME280;22011;59.912;30.300;2023-02-02T02:08:54;99832.31;;;1.87;73.85
35918;BME280;22011;59.912;30.300;2023-02-02T02:11:23;99839.19;;;1.79;73.34
35918;BME280;22011;59.912;30.300;2023-02-02T02:13:52;99835.75;;;1.78;73.76
35918;BME280;22011;59.912;30.300;2023-02-02T02:16:52;99837.84;;;1.84;74.23
35918;BME280;22011;59.912;30.300;2023-02-02T02:19:54;99834.13;;;1.87;74.41
35918;BME280;22011;59.912;30.300;2023-02-02T02:23:03;99837.41;;;1.79;73.97
35918;BME280;22011;59.912;30.300;2023-02-02T02:29:28;99834.81;;;1.89;73.77
35918;BME280;22011;59.912;30.300;2023-02-02T02:32:13;99836.75;;;1.87;73.40
35918;BME280;22011;59.912;30.300;2023-02-02T02:34:51;99842.25;;;1.84;73.32
35918;BME280;22011;59.912;30.300;2023-02-02T02:37:28;99834.66;;;1.81;73.98
35918;BME280;22011;59.912;30.300;2023-02-02T02:40:02;99837.41;;;1.79;74.48
35918;BME280;22011;59.912;30.300;2023-02-02T02:42:37;99845.03;;;1.82;73.88
35918;BME280;22011;59.912;30.300;2023-02-02T02:45:07;99845.84;;;1.83;73.24
35918;BME280;22011;59.912;30.300;2023-02-02T02:47:38;99843.09;;;1.84;72.89
35918;BME280;22011;59.912;30.300;2023-02-02T02:50:08;99843.22;;;1.83;73.02
35918;BME280;22011;59.912;30.300;2023-02-02T02:52:37;99839.91;;;1.81;73.28
35918;BME280;22011;59.912;30.300;2023-02-02T02:55:06;99849.69;;;1.79;73.30
35918;BME280;22011;59.912;30.300;2023-02-02T02:57:46;99851.53;;;1.88;73.83
35918;BME280;22011;59.912;30.300;2023-02-02T03:03:22;99849.47;;;1.91;74.14
35918;BME280;22011;59.912;30.300;2023-02-02T03:06:00;99859.28;;;1.89;73.93
35918;BME280;22011;59.912;30.300;2023-02-02T03:08:32;99858.03;;;1.84;74.01
35918;BME280;22011;59.912;30.300;2023-02-02T03:11:03;99863.28;;;1.84;73.88
35918;BME280;22011;59.912;30.300;2023-02-02T03:13:32;99863.53;;;1.81;73.29
35918;BME280;22011;59.912;30.300;2023-02-02T03:16:00;99868.53;;;1.84;73.02
35918;BME280;22011;59.912;30.300;2023-02-02T03:18:30;99863.97;;;1.86;73.16
35918;BME280;22011;59.912;30.300;2023-02-02T03:20:59;99872.94;;;1.83;73.49
35918;BME280;22011;59.912;30.300;2023-02-02T03:23:26;99865.19;;;1.82;73.39
35918;BME280;22011;59.912;30.300;2023-02-02T03:25:54;99868.53;;;1.84;73.41
35918;BME280;22011;59.912;30.300;2023-02-02T03:28:23;99860.25;;;1.88;73.58
35918;BME280;22011;59.912;30.300;2023-02-02T03:30:52;99862.19;;;1.86;73.78
35918;BME280;22011;59.912;30.300;2023-02-02T03:33:20;99865.31;;;1.80;73.78
35918;BME280;22011;59.912;30.300;2023-02-02T03:35:50;99867.56;;;1.85;74.71
35918;BME280;22011;59.912;30.300;2023-02-02T03:38:17;99875.00;;;1.80;74.38
35918;BME280;22011;59.912;30.300;2023-02-02T03:40:45;99874.44;;;1.76;74.30
35918;BME280;22011;59.912;30.300;2023-02-02T03:43:12;99877.19;;;1.75;74.83
35918;BME280;22011;59.912;30.300;2023-02-02T03:45:40;99885.06;;;1.75;75.07
35918;BME280;22011;59.912;30.300;2023-02-02T03:48:08;99874.56;;;1.75;74.95
35918;BME280;22011;59.912;30.300;2023-02-02T03:50:36;99883.97;;;1.77;74.84
35918;BME280;22011;59.912;30.300;2023-02-02T03:53:05;99886.22;;;1.82;74.63
35918;BME280;22011;59.912;30.300;2023-02-02T03:55:32;99892.28;;;1.82;74.13
35918;BME280;22011;59.912;30.300;2023-02-02T03:58:00;99896.00;;;1.80;73.55
35918;BME280;22011;59.912;30.300;2023-02-02T04:00:27;99889.50;;;1.74;74.08
35918;BME280;22011;59.912;30.300;2023-02-02T04:02:55;99894.03;;;1.72;74.03
35918;BME280;22011;59.912;30.300;2023-02-02T04:05:22;99893.91;;;1.74;74.55
35918;BME280;22011;59.912;30.300;2023-02-02T04:07:49;99894.16;;;1.71;74.57
35918;BME280;22011;59.912;30.300;2023-02-02T04:10:19;99900.94;;;1.73;75.07
35918;BME280;22011;59.912;30.300;2023-02-02T04:12:46;99902.31;;;1.68;74.42
35918;BME280;22011;59.912;30.300;2023-02-02T04:15:14;99903.00;;;1.70;74.52
35918;BME280;22011;59.912;30.300;2023-02-02T04:17:41;99905.63;;;1.70;74.64
35918;BME280;22011;59.912;30.300;2023-02-02T04:20:10;99900.94;;;1.73;74.63
35918;BME280;22011;59.912;30.300;2023-02-02T04:22:38;99896.53;;;1.74;74.07
35918;BME280;22011;59.912;30.300;2023-02-02T04:25:06;99896.66;;;1.72;73.68
35918;BME280;22011;59.912;30.300;2023-02-02T04:27:35;99901.78;;;1.74;73.81
35918;BME280;22011;59.912;30.300;2023-02-02T04:30:03;99913.25;;;1.73;74.41
35918;BME280;22011;59.912;30.300;2023-02-02T04:32:31;99905.50;;;1.71;74.09
35918;BME280;22011;59.912;30.300;2023-02-02T04:34:58;99909.22;;;1.69;73.75
35918;BME280;22011;59.912;30.300;2023-02-02T04:37:25;99911.59;;;1.72;74.19
35918;BME280;22011;59.912;30.300;2023-02-02T04:39:53;99911.31;;;1.75;73.71
35918;BME280;22011;59.912;30.300;2023-02-02T04:42:20;99916.72;;;1.73;74.30
35918;BME280;22011;59.912;30.300;2023-02-02T04:44:49;99916.13;;;1.70;73.83
35918;BME280;22011;59.912;30.300;2023-02-02T04:47:17;99921.50;;;1.68;73.13
35918;BME280;22011;59.912;30.300;2023-02-02T04:49:44;99920.69;;;1.68;73.59
35918;BME280;22011;59.912;30.300;2023-02-02T04:52:12;99917.88;;;1.59;73.61
35918;BME280;22011;59.912;30.300;2023-02-02T04:54:39;99927.41;;;1.60;73.28
35918;BME280;22011;59.912;30.300;2023-02-02T04:57:07;99934.44;;;1.60;73.45
35918;BME280;22011;59.912;30.300;2023-02-02T04:59:34;99919.66;;;1.59;73.50
35918;BME280;22011;59.912;30.300;2023-02-02T05:02:03;99925.63;;;1.61;73.40
35918;BME280;22011;59.912;30.300;2023-02-02T05:04:31;99935.53;;;1.57;73.89
35918;BME280;22011;59.912;30.300;2023-02-02T05:06:58;99934.97;;;1.54;74.46
35918;BME280;22011;59.912;30.300;2023-02-02T05:09:26;99941.31;;;1.51;74.32
35918;BME280;22011;59.912;30.300;2023-02-02T05:11:53;99944.75;;;1.52;74.03
35918;BME280;22011;59.912;30.300;2023-02-02T05:14:21;99950.34;;;1.58;73.97
35918;BME280;22011;59.912;30.300;2023-02-02T05:16:48;99947.72;;;1.58;73.78
35918;BME280;22011;59.912;30.300;2023-02-02T05:19:17;99951.75;;;1.62;73.90
35918;BME280;22011;59.912;30.300;2023-02-02T05:21:45;99957.13;;;1.61;73.50
35918;BME280;22011;59.912;30.300;2023-02-02T05:24:14;99955.31;;;1.61;73.47
35918;BME280;22011;59.912;30.300;2023-02-02T05:26:41;99960.44;;;1.63;74.21
35918;BME280;22011;59.912;30.300;2023-02-02T05:29:09;99959.38;;;1.66;73.89
35918;BME280;22011;59.912;30.300;2023-02-02T05:31:36;99960.19;;;1.66;74.36
35918;BME280;22011;59.912;30.300;2023-02-02T05:34:04;99964.75;;;1.64;73.67
35918;BME280;22011;59.912;30.300;2023-02-02T05:36:33;99957.94;;;1.61;73.51
35918;BME280;22011;59.912;30.300;2023-02-02T05:39:00;99959.88;;;1.59;73.59
35918;BME280;22011;59.912;30.300;2023-02-02T05:41:28;99961.53;;;1.60;74.10
35918;BME280;22011;59.912;30.300;2023-02-02T05:43:57;99968.78;;;1.68;74.22
35918;BME280;22011;59.912;30.300;2023-02-02T05:46:25;99967.25;;;1.66;73.60
35918;BME280;22011;59.912;30.300;2023-02-02T05:48:52;99971.53;;;1.67;73.54
35918;BME280;22011;59.912;30.300;2023-02-02T05:51:23;99977.50;;;1.69;73.76
35918;BME280;22011;59.912;30.300;2023-02-02T05:53:53;99975.69;;;1.69;74.77
35918;BME280;22011;59.912;30.300;2023-02-02T05:56:21;99977.75;;;1.66;74.23
35918;BME280;22011;59.912;30.300;2023-02-02T05:58:48;99979.78;;;1.62;73.28
35918;BME280;22011;59.912;30.300;2023-02-02T06:01:17;99980.63;;;1.62;73.94
35918;BME280;22011;59.912;30.300;2023-02-02T06:03:44;99975.75;;;1.58;73.40
35918;BME280;22011;59.912;30.300;2023-02-02T06:06:12;99989.47;;;1.61;73.63
35918;BME280;22011;59.912;30.300;2023-02-02T06:08:39;99993.06;;;1.60;73.54
35918;BME280;22011;59.912;30.300;2023-02-02T06:11:09;99993.75;;;1.62;73.70
35918;BME280;22011;59.912;30.300;2023-02-02T06:13:37;99999.38;;;1.58;73.95
35918;BME280;22011;59.912;30.300;2023-02-02T06:16:05;99996.75;;;1.58;73.89
35918;BME280;22011;59.912;30.300;2023-02-02T06:18:33;100004.06;;;1.54;73.65
35918;BME280;22011;59.912;30.300;2023-02-02T06:21:02;100010.13;;;1.55;74.41
35918;BME280;22011;59.912;30.300;2023-02-02T06:23:31;100005.97;;;1.52;74.54
35918;BME280;22011;59.912;30.300;2023-02-02T06:25:59;100008.59;;;1.52;74.56
35918;BME280;22011;59.912;30.300;2023-02-02T06:28:30;100014.88;;;1.61;74.01
35918;BME280;22011;59.912;30.300;2023-02-02T06:31:02;100006.88;;;1.62;74.37
35918;BME280;22011;59.912;30.300;2023-02-02T06:33:30;100012.63;;;1.56;73.57
35918;BME280;22011;59.912;30.300;2023-02-02T06:35:58;100010.13;;;1.55;73.62
35918;BME280;22011;59.912;30.300;2023-02-02T06:38:27;100008.47;;;1.54;73.77
35918;BME280;22011;59.912;30.300;2023-02-02T06:40:57;100010.84;;;1.57;74.08
35918;BME280;22011;59.912;30.300;2023-02-02T06:43:25;100012.88;;;1.53;74.65
35918;BME280;22011;59.912;30.300;2023-02-02T06:45:56;100021.47;;;1.55;74.77
35918;BME280;22011;59.912;30.300;2023-02-02T06:48:23;100017.44;;;1.51;75.02
35918;BME280;22011;59.912;30.300;2023-02-02T06:50:51;100021.72;;;1.52;74.17
35918;BME280;22011;59.912;30.300;2023-02-02T06:53:18;100018.97;;;1.54;74.38
35918;BME280;22011;59.912;30.300;2023-02-02T06:55:52;100024.31;;;1.63;74.98
35918;BME280;22011;59.912;30.300;2023-02-02T06:58:19;100021.34;;;1.57;74.25
35918;BME280;22011;59.912;30.300;2023-02-02T07:00:47;100020.25;;;1.59;74.22
35918;BME280;22011;59.912;30.300;2023-02-02T07:03:17;100034.56;;;1.67;74.65
35918;BME280;22011;59.912;30.300;2023-02-02T07:05:46;100030.38;;;1.64;74.14
35918;BME280;22011;59.912;30.300;2023-02-02T07:08:14;100040.75;;;1.66;74.19
35918;BME280;22011;59.912;30.300;2023-02-02T07:10:41;100039.81;;;1.67;74.20
35918;BME280;22011;59.912;30.300;2023-02-02T07:13:09;100043.41;;;1.66;74.09
35918;BME280;22011;59.912;30.300;2023-02-02T07:15:37;100047.31;;;1.71;74.02
35918;BME280;22011;59.912;30.300;2023-02-02T07:18:05;100059.59;;;1.71;73.73
35918;BME280;22011;59.912;30.300;2023-02-02T07:20:34;100057.81;;;1.71;74.09
35918;BME280;22011;59.912;30.300;2023-02-02T07:23:02;100055.31;;;1.70;73.85
35918;BME280;22011;59.912;30.300;2023-02-02T07:25:29;100062.09;;;1.72;73.54
35918;BME280;22011;59.912;30.300;2023-02-02T07:27:57;100059.34;;;1.74;73.71
35918;BME280;22011;59.912;30.300;2023-02-02T07:30:24;100059.59;;;1.71;74.17
35918;BME280;22011;59.912;30.300;2023-02-02T07:32:54;100063.91;;;1.72;73.80
35918;BME280;22011;59.912;30.300;2023-02-02T07:35:22;100067.69;;;1.79;73.52
35918;BME280;22011;59.912;30.300;2023-02-02T07:37:52;100062.19;;;1.82;73.35
35918;BME280;22011;59.912;30.300;2023-02-02T07:40:20;100065.06;;;1.79;72.70
35918;BME280;22011;59.912;30.300;2023-02-02T07:42:48;100068.53;;;1.79;72.97
35918;BME280;22011;59.912;30.300;2023-02-02T07:45:15;100068.41;;;1.81;72.80
35918;BME280;22011;59.912;30.300;2023-02-02T07:47:43;100073.16;;;1.87;72.95
35918;BME280;22011;59.912;30.300;2023-02-02T07:50:10;100071.47;;;1.86;73.20
35918;BME280;22011;59.912;30.300;2023-02-02T07:52:38;100071.72;;;1.83;73.16
35918;BME280;22011;59.912;30.300;2023-02-02T07:55:08;100076.72;;;1.86;74.03
35918;BME280;22011;59.912;30.300;2023-02-02T07:57:37;100075.19;;;1.83;73.73
35918;BME280;22011;59.912;30.300;2023-02-02T08:00:05;100076.72;;;1.86;73.84
35918;BME280;22011;59.912;30.300;2023-02-02T08:02:38;100083.06;;;1.83;73.14
35918;BME280;22011;59.912;30.300;2023-02-02T08:05:06;100090.81;;;1.85;74.03
35918;BME280;22011;59.912;30.300;2023-02-02T08:07:33;100088.19;;;1.85;74.01
35918;BME280;22011;59.912;30.300;2023-02-02T08:10:01;100090.94;;;1.83;73.39
35918;BME280;22011;59.912;30.300;2023-02-02T08:12:30;100088.66;;;1.90;74.37
35918;BME280;22011;59.912;30.300;2023-02-02T08:14:57;100089.50;;;1.90;73.44
35918;BME280;22011;59.912;30.300;2023-02-02T08:17:25;100089.38;;;1.92;73.49
35918;BME280;22011;59.912;30.300;2023-02-02T08:19:52;100095.06;;;1.97;73.53
35918;BME280;22011;59.912;30.300;2023-02-02T08:22:20;100090.91;;;1.94;73.06
35918;BME280;22011;59.912;30.300;2023-02-02T08:24:47;100095.06;;;1.97;72.68
35918;BME280;22011;59.912;30.300;2023-02-02T08:27:15;100095.06;;;1.97;72.46
35918;BME280;22011;59.912;30.300;2023-02-02T08:29:44;100097.19;;;2.03;73.10
35918;BME280;22011;59.912;30.300;2023-02-02T08:32:12;100096.38;;;2.03;72.75
35918;BME280;22011;59.912;30.300;2023-02-02T08:34:40;100101.88;;;2.00;72.35
35918;BME280;22011;59.912;30.300;2023-02-02T08:37:08;100094.13;;;1.98;72.55
35918;BME280;22011;59.912;30.300;2023-02-02T08:39:35;100095.06;;;1.97;73.47
35918;BME280;22011;59.912;30.300;2023-02-02T08:42:03;100104.50;;;2.00;72.88
35918;BME280;22011;59.912;30.300;2023-02-02T08:44:30;100105.06;;;2.03;72.64
35918;BME280;22011;59.912;30.300;2023-02-02T08:46:59;100116.84;;;2.09;72.29
35918;BME280;22011;59.912;30.300;2023-02-02T08:49:26;100120.59;;;2.06;71.95
35918;BME280;22011;59.912;30.300;2023-02-02T08:51:54;100116.72;;;2.10;72.99
35918;BME280;22011;59.912;30.300;2023-02-02T08:54:21;100115.34;;;2.06;73.00
35918;BME280;22011;59.912;30.300;2023-02-02T08:56:49;100119.44;;;1.99;72.73
35918;BME280;22011;59.912;30.300;2023-02-02T08:59:16;100119.19;;;2.02;72.90
35918;BME280;22011;59.912;30.300;2023-02-02T09:01:44;100112.97;;;2.03;72.67
35918;BME280;22011;59.912;30.300;2023-02-02T09:04:14;100122.09;;;2.09;72.86
35918;BME280;22011;59.912;30.300;2023-02-02T09:06:42;100116.53;;;2.02;72.90
35918;BME280;22011;59.912;30.300;2023-02-02T09:09:13;100121.28;;;2.08;72.29
35918;BME280;22011;59.912;30.300;2023-02-02T09:11:41;100117.69;;;2.09;72.83
35918;BME280;22011;59.912;30.300;2023-02-02T09:14:09;100115.22;;;2.08;72.49
35918;BME280;22011;59.912;30.300;2023-02-02T09:16:38;100124.72;;;2.09;71.90
35918;BME280;22011;59.912;30.300;2023-02-02T09:19:06;100122.25;;;2.07;71.74
35918;BME280;22011;59.912;30.300;2023-02-02T09:21:35;100123.50;;;2.13;71.73
35918;BME280;22011;59.912;30.300;2023-02-02T09:24:06;100123.50;;;2.13;71.92
35918;BME280;22011;59.912;30.300;2023-02-02T09:26:33;100124.88;;;2.07;71.62
35918;BME280;22011;59.912;30.300;2023-02-02T09:29:03;100123.91;;;2.08;71.54
35918;BME280;22011;59.912;30.300;2023-02-02T09:31:33;100129.47;;;2.15;72.34
35918;BME280;22011;59.912;30.300;2023-02-02T09:34:01;100130.69;;;2.11;72.23
35918;BME280;22011;59.912;30.300;2023-02-02T09:36:30;100135.13;;;2.10;72.06
35918;BME280;22011;59.912;30.300;2023-02-02T09:38:59;100128.91;;;2.11;71.80
35918;BME280;22011;59.912;30.300;2023-02-02T09:44:52;100138.97;;;2.27;72.00
35918;BME280;22011;59.912;30.300;2023-02-02T09:47:24;100140.19;;;2.23;71.57
35918;BME280;22011;59.912;30.300;2023-02-02T09:49:56;100145.31;;;2.24;71.38
35918;BME280;22011;59.912;30.300;2023-02-02T09:52:28;100147.63;;;2.18;71.66
35918;BME280;22011;59.912;30.300;2023-02-02T09:55:00;100147.50;;;2.19;71.08
35918;BME280;22011;59.912;30.300;2023-02-02T09:57:32;100144.88;;;2.19;70.52
35918;BME280;22011;59.912;30.300;2023-02-02T10:00:05;100146.09;;;2.15;70.78
35918;BME280;22011;59.912;30.300;2023-02-02T10:02:39;100150.97;;;2.20;70.63
35918;BME280;22011;59.912;30.300;2023-02-02T10:05:14;100146.41;;;2.22;70.92
35918;BME280;22011;59.912;30.300;2023-02-02T10:07:45;100147.75;;;2.16;70.70
35918;BME280;22011;59.912;30.300;2023-02-02T10:10:19;100150.56;;;2.24;70.91
35918;BME280;22011;59.912;30.300;2023-02-02T10:12:53;100150.84;;;2.21;71.26
35918;BME280;22011;59.912;30.300;2023-02-02T10:15:38;100149.63;;;2.25;71.69
35918;BME280;22011;59.912;30.300;2023-02-02T10:18:11;100152.50;;;2.22;72.04
35918;BME280;22011;59.912;30.300;2023-02-02T10:20:44;100151.66;;;2.22;70.26
35918;BME280;22011;59.912;30.300;2023-02-02T10:23:20;100150.56;;;2.24;70.91
35918;BME280;22011;59.912;30.300;2023-02-02T10:25:55;100162.75;;;2.25;71.21
35918;BME280;22011;59.912;30.300;2023-02-02T10:28:40;100153.78;;;2.28;71.34
35918;BME280;22011;59.912;30.300;2023-02-02T10:31:16;100159.44;;;2.23;70.71
35918;BME280;22011;59.912;30.300;2023-02-02T10:33:52;100159.69;;;2.20;70.91
35918;BME280;22011;59.912;30.300;2023-02-02T10:36:28;100163.59;;;2.26;71.01
35918;BME280;22011;59.912;30.300;2023-02-02T10:39:03;100166.44;;;2.34;70.88
35918;BME280;22011;59.912;30.300;2023-02-02T10:41:44;100169.19;;;2.33;70.77
35918;BME280;22011;59.912;30.300;2023-02-02T10:44:25;100169.19;;;2.33;71.42
35918;BME280;22011;59.912;30.300;2023-02-02T10:46:59;100172.06;;;2.29;71.69
35918;BME280;22011;59.912;30.300;2023-02-02T10:49:29;100175.78;;;2.27;72.08
35918;BME280;22011;59.912;30.300;2023-02-02T10:52:04;100163.66;;;2.36;71.70
35918;BME280;22011;59.912;30.300;2023-02-02T10:54:56;100166.94;;;2.49;71.83
35918;BME280;22011;59.912;30.300;2023-02-02T10:57:45;100165.66;;;2.43;71.41
35918;BME280;22011;59.912;30.300;2023-02-02T11:00:21;100162.56;;;2.38;71.43
35918;BME280;22011;59.912;30.300;2023-02-02T11:02:50;100165.59;;;2.34;71.92
35918;BME280;22011;59.912;30.300;2023-02-02T11:05:21;100170.34;;;2.40;71.86
35918;BME280;22011;59.912;30.300;2023-02-02T11:08:14;100171.25;;;2.50;71.41
35918;BME280;22011;59.912;30.300;2023-02-02T11:10:43;100174.50;;;2.42;70.70
35918;BME280;22011;59.912;30.300;2023-02-02T11:13:16;100178.16;;;2.51;70.62
35918;BME280;22011;59.912;30.300;2023-02-02T11:15:46;100179.44;;;2.36;69.38
35918;BME280;22011;59.912;30.300;2023-02-02T11:18:24;100188.03;;;2.38;70.34
35918;BME280;22011;59.912;30.300;2023-02-02T11:20:53;100183.28;;;2.32;70.25
35918;BME280;22011;59.912;30.300;2023-02-02T11:23:22;100180.53;;;2.33;70.53
35918;BME280;22011;59.912;30.300;2023-02-02T11:26:01;100192.78;;;2.44;70.75
35918;BME280;22011;59.912;30.300;2023-02-02T11:28:33;100189.97;;;2.36;70.84
35918;BME280;22011;59.912;30.300;2023-02-02T11:31:02;100190.22;;;2.33;70.57
35918;BME280;22011;59.912;30.300;2023-02-02T11:33:31;100189.13;;;2.35;71.08
35918;BME280;22011;59.912;30.300;2023-02-02T11:36:01;100193.56;;;2.35;71.75
35918;BME280;22011;59.912;30.300;2023-02-02T11:38:29;100201.09;;;2.28;70.42
35918;BME280;22011;59.912;30.300;2023-02-02T11:41:00;100196.19;;;2.35;70.46
35918;BME280;22011;59.912;30.300;2023-02-02T11:43:32;100200.47;;;2.36;71.24
35918;BME280;22011;59.912;30.300;2023-02-02T11:46:14;100201.31;;;2.36;70.65
35918;BME280;22011;59.912;30.300;2023-02-02T11:48:48;100191.56;;;2.48;70.82
35918;BME280;22011;59.912;30.300;2023-02-02T11:51:21;100209.16;;;2.47;71.39
35918;BME280;22011;59.912;30.300;2023-02-02T11:54:00;100201.13;;;2.49;71.41
35918;BME280;22011;59.912;30.300;2023-02-02T11:56:28;100201.31;;;2.36;70.71
35918;BME280;22011;59.912;30.300;2023-02-02T11:58:57;100207.41;;;2.37;70.46
35918;BME280;22011;59.912;30.300;2023-02-02T12:01:30;100211.69;;;2.38;71.18
35918;BME280;22011;59.912;30.300;2023-02-02T12:04:00;100213.75;;;2.34;69.75
35918;BME280;22011;59.912;30.300;2023-02-02T12:06:34;100216.00;;;2.39;70.30
35918;BME280;22011;59.912;30.300;2023-02-02T12:09:09;100219.13;;;2.33;70.60
35918;BME280;22011;59.912;30.300;2023-02-02T12:11:58;100215.09;;;2.28;71.11
35918;BME280;22011;59.912;30.300;2023-02-02T12:14:36;100217.38;;;2.22;70.22
35918;BME280;22011;59.912;30.300;2023-02-02T12:17:19;100221.34;;;2.16;70.27
35918;BME280;22011;59.912;30.300;2023-02-02T12:20:20;100224.66;;;2.18;72.05
35918;BME280;22011;59.912;30.300;2023-02-02T12:25:49;100222.25;;;2.06;71.60
35918;BME280;22011;59.912;30.300;2023-02-02T12:28:29;100229.41;;;2.04;71.23
35918;BME280;22011;59.912;30.300;2023-02-02T12:31:08;100234.78;;;2.02;72.23
35918;BME280;22011;59.912;30.300;2023-02-02T12:33:44;100236.13;;;1.96;72.97
35918;BME280;22011;59.912;30.300;2023-02-02T12:36:24;100234.25;;;2.08;72.78
35918;BME280;22011;59.912;30.300;2023-02-02T12:39:21;100237.47;;;2.12;73.13
35918;BME280;22011;59.912;30.300;2023-02-02T12:42:04;100246.44;;;2.09;72.37
35918;BME280;22011;59.912;30.300;2023-02-02T12:44:43;100238.44;;;2.11;72.16
35918;BME280;22011;59.912;30.300;2023-02-02T12:47:18;100244.28;;;2.14;71.41
35918;BME280;22011;59.912;30.300;2023-02-02T12:50:14;100244.50;;;2.22;71.10
35918;BME280;22011;59.912;30.300;2023-02-02T12:52:57;100245.69;;;2.18;71.16
35918;BME280;22011;59.912;30.300;2023-02-02T12:55:36;100249.28;;;2.17;70.98
35918;BME280;22011;59.912;30.300;2023-02-02T12:58:14;100246.66;;;2.17;71.00
35918;BME280;22011;59.912;30.300;2023-02-02T13:01:00;100249.03;;;2.20;71.70
35918;BME280;22011;59.912;30.300;2023-02-02T13:03:38;100247.13;;;2.22;70.11
35918;BME280;22011;59.912;30.300;2023-02-02T13:06:22;100257.13;;;2.28;70.50
35918;BME280;22011;59.912;30.300;2023-02-02T13:08:57;100251.41;;;2.23;70.10
35918;BME280;22011;59.912;30.300;2023-02-02T13:11:36;100261.44;;;2.29;69.56
35918;BME280;22011;59.912;30.300;2023-02-02T13:14:10;100255.72;;;2.24;69.76
35918;BME280;22011;59.912;30.300;2023-02-02T13:16:42;100263.34;;;2.27;70.58
35918;BME280;22011;59.912;30.300;2023-02-02T13:19:19;100263.09;;;2.30;70.02
35918;BME280;22011;59.912;30.300;2023-02-02T13:21:50;100270.66;;;2.24;70.34
35918;BME280;22011;59.912;30.300;2023-02-02T13:24:23;100274.84;;;2.26;69.96
35918;BME280;22011;59.912;30.300;2023-02-02T13:26:53;100267.44;;;2.20;70.42
35918;BME280;22011;59.912;30.300;2023-02-02T13:29:29;100272.31;;;2.25;70.23